Amherst, Ohio
Current Conditions -  °F | °C
As of 10:53 AM on Saturday 20 Dec 2014 (Local Time) from KLPR Reporting Station
Overcast Overcast  
Wind Chill: 22°   Ceiling: 2800
Heat Index: 29°   Visibility: 10mi
Dew Point: 21°   Wind: 7mph
Humidity: 72%   Direction: 230°SW
Pressure: 30.31"   Gusts: NA
Location:  41.41°N, 82.24°W
Report Text: KLPR 201553Z AUTO 23006KT 10SM OVC028 M02/M06 A3031 RMK AO2 SLP272 T10171061 TSNO
Loading
Personal Weather Stations






























Interactive Weather Map New forecast layout! Learn more

10-Day Weather Forecast

Advertisements
Track Severe Weather on mobile